Wetterdaten: Woche 27.05.19 - 02.06.19 (KW22)
Datum Zeit Temp. Aussen Temp. o. S. +5cm Feuchte Auss Luftdruck Regen Sonnenschein Regendauer Solar Windben Empfang
27.05.2019 00:00 16,1 C 15,0 C 15,0 C 81 % 1010,3 hPa 0,0 l/m 0,00 h 0,00 h 0 W/m 14,9 km/h (3 Bft) 99,00 %
27.05.2019 01:00 15,8 C 14,7 C 14,6 C 84 % 1009,9 hPa 0,0 l/m 0,00 h 0,00 h 0 W/m 12,3 km/h (3 Bft) 95,79 %
27.05.2019 02:00 15,1 C 13,3 C 13,0 C 89 % 1009,6 hPa 0,2 l/m 0,00 h 0,30 h 0 W/m 8,8 km/h (2 Bft) 97,46 %
27.05.2019 03:00 14,4 C 12,8 C 12,8 C 94 % 1009,2 hPa 0,4 l/m 0,00 h 0,37 h 0 W/m 8,6 km/h (2 Bft) 97,70 %
27.05.2019 04:00 14,2 C 12,8 C 12,8 C 96 % 1009,0 hPa 0,8 l/m 0,00 h 0,57 h 0 W/m 6,9 km/h (2 Bft) 97,04 %
27.05.2019 05:00 13,5 C 12,0 C 11,9 C 96 % 1009,2 hPa 0,8 l/m 0,00 h 0,58 h 5 W/m 4,8 km/h (1 Bft) 99,41 %
27.05.2019 06:00 12,5 C 11,4 C 11,1 C 96 % 1009,5 hPa 0,0 l/m 0,00 h 0,20 h 16 W/m 2,7 km/h (1 Bft) 96,02 %
27.05.2019 07:00 12,4 C 11,8 C 11,5 C 97 % 1010,0 hPa 0,0 l/m 0,00 h 0,03 h 47 W/m 2,0 km/h (1 Bft) 97,51 %
27.05.2019 08:00 13,3 C 14,5 C 13,4 C 97 % 1010,3 hPa 0,0 l/m 0,07 h 0,00 h 138 W/m 4,4 km/h (1 Bft) 99,56 %
27.05.2019 09:00 14,6 C 17,1 C 16,4 C 93 % 1010,5 hPa 0,0 l/m 0,30 h 0,00 h 299 W/m 5,9 km/h (2 Bft) 96,24 %
27.05.2019 10:00 16,6 C 20,7 C 19,5 C 81 % 1010,5 hPa 0,0 l/m 0,53 h 0,00 h 390 W/m 9,1 km/h (2 Bft) 99,04 %
27.05.2019 11:00 17,9 C 22,1 C 21,7 C 73 % 1010,4 hPa 0,0 l/m 0,57 h 0,00 h 519 W/m 10,7 km/h (2 Bft) 95,38 %
27.05.2019 12:00 20,1 C 25,3 C 25,2 C 64 % 1010,2 hPa 0,0 l/m 0,87 h 0,00 h 765 W/m 11,6 km/h (2 Bft) 96,67 %
27.05.2019 13:00 19,6 C 20,7 C 20,0 C 61 % 1010,2 hPa 0,0 l/m 0,07 h 0,00 h 343 W/m 11,9 km/h (2 Bft) 98,87 %
27.05.2019 14:00 20,0 C 23,0 C 22,3 C 60 % 1009,8 hPa 0,0 l/m 0,47 h 0,00 h 610 W/m 12,3 km/h (3 Bft) 98,12 %
27.05.2019 15:00 20,7 C 22,4 C 20,6 C 56 % 1009,3 hPa 0,0 l/m 0,67 h 0,00 h 607 W/m 11,5 km/h (2 Bft) 97,31 %
27.05.2019 16:00 20,4 C 20,4 C 19,5 C 54 % 1009,1 hPa 0,0 l/m 0,40 h 0,00 h 338 W/m 11,2 km/h (2 Bft) 96,74 %
27.05.2019 17:00 19,4 C 19,4 C 18,8 C 55 % 1008,9 hPa 0,0 l/m 0,00 h 0,00 h 224 W/m 8,6 km/h (2 Bft) 98,85 %
27.05.2019 18:00 19,0 C 18,8 C 18,1 C 56 % 1008,7 hPa 0,0 l/m 0,00 h 0,00 h 163 W/m 8,2 km/h (2 Bft) 97,49 %
27.05.2019 19:00 18,4 C 17,8 C 16,9 C 60 % 1008,4 hPa 0,0 l/m 0,00 h 0,00 h 81 W/m 6,6 km/h (2 Bft) 96,78 %
27.05.2019 20:00 17,6 C 16,3 C 15,7 C 64 % 1008,1 hPa 0,0 l/m 0,00 h 0,00 h 33 W/m 3,0 km/h (1 Bft) 99,01 %
27.05.2019 21:00 16,7 C 15,2 C 14,6 C 67 % 1008,2 hPa 0,0 l/m 0,00 h 0,00 h 8 W/m 1,6 km/h (1 Bft) 95,08 %
27.05.2019 22:00 15,7 C 14,0 C 13,5 C 69 % 1008,1 hPa 0,0 l/m 0,00 h 0,00 h 0 W/m 0,0 km/h (0 Bft) 97,67 %
27.05.2019 23:00 14,5 C 12,0 C 11,1 C 72 % 1008,0 hPa 0,0 l/m 0,00 h 0,00 h 0 W/m 0,0 km/h (0 Bft) 99,65 %
28.05.2019 00:00 12,7 C 10,5 C 10,0 C 77 % 1008,0 hPa 0,0 l/m 0,00 h 0,00 h 0 W/m 0,0 km/h (0 Bft) 97,17 %
28.05.2019 01:00 11,6 C 9,7 C 9,1 C 80 % 1007,9 hPa 0,0 l/m 0,00 h 0,00 h 0 W/m 0,0 km/h (0 Bft) 96,43 %
28.05.2019 02:00 11,0 C 10,3 C 9,9 C 84 % 1007,5 hPa 0,0 l/m 0,00 h 0,00 h 0 W/m 0,0 km/h (0 Bft) 96,61 %
28.05.2019 03:00 11,1 C 10,6 C 10,0 C 85 % 1007,0 hPa 0,0 l/m 0,00 h 0,00 h 0 W/m 0,0 km/h (0 Bft) 98,94 %
28.05.2019 04:00 11,4 C 11,0 C 10,6 C 86 % 1006,7 hPa 0,0 l/m 0,00 h 0,00 h 0 W/m 0,0 km/h (0 Bft) 96,84 %
28.05.2019 05:00 11,7 C 11,1 C 10,6 C 85 % 1006,5 hPa 0,0 l/m 0,00 h 0,00 h 4 W/m 0,0 km/h (0 Bft) 97,71 %
28.05.2019 06:00 11,8 C 11,4 C 11,0 C 87 % 1006,7 hPa 0,0 l/m 0,00 h 0,00 h 16 W/m 1,5 km/h (1 Bft) 96,95 %
28.05.2019 07:00 12,2 C 12,0 C 11,8 C 88 % 1006,6 hPa 0,0 l/m 0,00 h 0,00 h 55 W/m 5,0 km/h (1 Bft) 97,18 %
28.05.2019 08:00 12,6 C 12,7 C 12,2 C 88 % 1006,9 hPa 0,0 l/m 0,00 h 0,00 h 93 W/m 7,2 km/h (2 Bft) 99,36 %
28.05.2019 09:00 13,5 C 14,5 C 13,8 C 87 % 1007,0 hPa 0,0 l/m 0,03 h 0,00 h 149 W/m 6,0 km/h (2 Bft) 96,21 %
28.05.2019 10:00 14,4 C 15,0 C 14,1 C 83 % 1007,0 hPa 0,0 l/m 0,13 h 0,27 h 170 W/m 5,7 km/h (1 Bft) 97,10 %
28.05.2019 11:00 14,2 C 13,7 C 13,0 C 84 % 1007,3 hPa 4,0 l/m 0,17 h 0,50 h 196 W/m 9,9 km/h (2 Bft) 97,79 %
28.05.2019 12:00 11,3 C 11,2 C 10,8 C 92 % 1008,2 hPa 1,0 l/m 0,17 h 0,67 h 255 W/m 6,2 km/h (2 Bft) 96,67 %
28.05.2019 13:00 12,6 C 12,5 C 11,9 C 94 % 1008,8 hPa 0,2 l/m 0,00 h 0,50 h 243 W/m 8,9 km/h (2 Bft) 98,43 %
28.05.2019 14:00 13,1 C 12,6 C 11,9 C 94 % 1009,2 hPa 0,2 l/m 0,00 h 0,80 h 282 W/m 9,9 km/h (2 Bft) 96,95 %
28.05.2019 15:00 13,6 C 14,7 C 12,7 C 92 % 1009,8 hPa 0,0 l/m 0,73 h 0,03 h 445 W/m 9,8 km/h (2 Bft) 97,93 %
28.05.2019 16:00 14,1 C 14,5 C 12,5 C 88 % 1010,4 hPa 0,0 l/m 0,17 h 0,00 h 198 W/m 9,3 km/h (2 Bft) 98,35 %
28.05.2019 17:00 14,0 C 15,2 C 13,3 C 87 % 1011,1 hPa 0,0 l/m 0,43 h 0,00 h 328 W/m 12,1 km/h (2 Bft) 96,70 %
28.05.2019 18:00 15,5 C 15,7 C 14,3 C 79 % 1011,6 hPa 0,0 l/m 0,87 h 0,00 h 392 W/m 12,9 km/h (3 Bft) 96,75 %
28.05.2019 19:00 14,4 C 13,3 C 12,4 C 78 % 1012,5 hPa 0,0 l/m 0,00 h 0,00 h 78 W/m 9,1 km/h (2 Bft) 98,29 %
28.05.2019 20:00 13,0 C 11,9 C 11,2 C 81 % 1013,4 hPa 0,0 l/m 0,00 h 0,00 h 27 W/m 7,5 km/h (2 Bft) 96,72 %
28.05.2019 21:00 12,3 C 11,5 C 10,6 C 84 % 1014,4 hPa 0,0 l/m 0,00 h 0,00 h 10 W/m 5,3 km/h (1 Bft) 96,60 %
28.05.2019 22:00 12,1 C 11,2 C 10,6 C 85 % 1015,3 hPa 0,0 l/m 0,00 h 0,00 h 0 W/m 3,9 km/h (1 Bft) 98,65 %
28.05.2019 23:00 11,6 C 10,1 C 9,5 C 85 % 1016,0 hPa 0,0 l/m 0,00 h 0,00 h 0 W/m 2,5 km/h (1 Bft) 97,08 %
29.05.2019 00:00 10,3 C 8,6 C 8,0 C 85 % 1016,7 hPa 0,2 l/m 0,00 h 0,00 h 0 W/m 4,7 km/h (1 Bft) 92,37 %
29.05.2019 01:00 9,2 C 8,0 C 7,5 C 85 % 1017,4 hPa 0,0 l/m 0,00 h 0,00 h 0 W/m 4,4 km/h (1 Bft) 97,47 %
29.05.2019 02:00 8,4 C 6,5 C 6,1 C 85 % 1018,0 hPa 0,0 l/m 0,00 h 0,00 h 0 W/m 0,5 km/h (0 Bft) 99,36 %
29.05.2019 03:00 7,5 C 6,1 C 5,5 C 87 % 1018,6 hPa 0,0 l/m 0,00 h 0,00 h 0 W/m 0,6 km/h (0 Bft) 96,99 %
29.05.2019 04:00 6,7 C 4,9 C 4,5 C 88 % 1019,2 hPa 0,0 l/m 0,00 h 0,00 h 0 W/m 0,6 km/h (0 Bft) 96,50 %
29.05.2019 05:00 5,9 C 4,1 C 3,9 C 89 % 1019,7 hPa 0,0 l/m 0,00 h 0,00 h 7 W/m 0,0 km/h (0 Bft) 97,23 %
29.05.2019 06:00 5,4 C 4,7 C 4,1 C 91 % 1020,3 hPa 0,0 l/m 0,00 h 0,00 h 18 W/m 0,0 km/h (0 Bft) 98,52 %
29.05.2019 07:00 6,3 C 7,1 C 5,8 C 94 % 1020,9 hPa 0,0 l/m 0,00 h 0,00 h 31 W/m 1,2 km/h (1 Bft) 97,07 %
29.05.2019 08:00 9,3 C 16,8 C 13,4 C 94 % 1021,4 hPa 0,0 l/m 0,10 h 0,00 h 94 W/m 5,5 km/h (1 Bft) 97,93 %
29.05.2019 09:00 13,8 C 20,6 C 22,9 C 74 % 1021,9 hPa 0,0 l/m 1,00 h 0,00 h 584 W/m 6,2 km/h (2 Bft) 98,31 %
29.05.2019 10:00 16,3 C 24,2 C 25,4 C 63 % 1022,1 hPa 0,0 l/m 1,00 h 0,00 h 753 W/m 6,5 km/h (2 Bft) 98,77 %
29.05.2019 11:00 17,4 C 24,9 C 26,1 C 56 % 1022,2 hPa 0,0 l/m 1,00 h 0,00 h 874 W/m 8,3 km/h (2 Bft) 96,75 %
29.05.2019 12:00 18,3 C 24,7 C 27,1 C 53 % 1022,2 hPa 0,0 l/m 1,00 h 0,00 h 950 W/m 9,4 km/h (2 Bft) 99,34 %
29.05.2019 13:00 19,2 C 24,6 C 28,0 C 50 % 1022,0 hPa 0,0 l/m 1,00 h 0,00 h 975 W/m 11,4 km/h (2 Bft) 97,63 %
29.05.2019 14:00 20,0 C 24,4 C 26,2 C 47 % 1021,8 hPa 0,0 l/m 1,00 h 0,00 h 958 W/m 11,2 km/h (2 Bft) 96,06 %
29.05.2019 15:00 20,4 C 22,9 C 20,0 C 43 % 1021,5 hPa 0,0 l/m 1,00 h 0,00 h 899 W/m 13,1 km/h (3 Bft) 98,17 %
29.05.2019 16:00 21,0 C 20,7 C 19,8 C 45 % 1021,3 hPa 0,0 l/m 0,80 h 0,00 h 677 W/m 10,8 km/h (2 Bft) 97,08 %
29.05.2019 17:00 21,2 C 20,3 C 19,7 C 44 % 1021,3 hPa 0,0 l/m 0,97 h 0,00 h 592 W/m 10,8 km/h (2 Bft) 98,50 %
29.05.2019 18:00 21,5 C 20,3 C 19,2 C 46 % 1021,0 hPa 0,0 l/m 1,00 h 0,00 h 435 W/m 9,2 km/h (2 Bft) 95,53 %
29.05.2019 19:00 20,9 C 19,2 C 17,9 C 46 % 1021,0 hPa 0,0 l/m 0,53 h 0,00 h 177 W/m 7,8 km/h (2 Bft) 97,41 %
29.05.2019 20:00 19,2 C 17,8 C 17,1 C 51 % 1021,2 hPa 0,0 l/m 0,00 h 0,00 h 52 W/m 6,1 km/h (2 Bft) 98,72 %
29.05.2019 21:00 18,2 C 16,7 C 15,1 C 54 % 1021,3 hPa 0,0 l/m 0,00 h 0,00 h 11 W/m 3,9 km/h (1 Bft) 96,65 %
29.05.2019 22:00 17,3 C 15,8 C 14,3 C 58 % 1021,6 hPa 0,0 l/m 0,00 h 0,00 h 0 W/m 4,2 km/h (1 Bft) 98,50 %
29.05.2019 23:00 16,2 C 14,4 C 13,0 C 62 % 1021,7 hPa 0,0 l/m 0,00 h 0,00 h 0 W/m 4,2 km/h (1 Bft) 96,09 %
30.05.2019 00:00 15,3 C 14,4 C 13,8 C 66 % 1021,6 hPa 0,0 l/m 0,00 h 0,00 h 0 W/m 7,1 km/h (2 Bft) 98,07 %
30.05.2019 01:00 15,1 C 14,4 C 13,9 C 68 % 1021,5 hPa 0,0 l/m 0,00 h 0,00 h 0 W/m 8,6 km/h (2 Bft) 98,50 %
30.05.2019 02:00 14,9 C 13,9 C 13,5 C 71 % 1021,5 hPa 0,0 l/m 0,00 h 0,00 h 0 W/m 9,3 km/h (2 Bft) 96,52 %
30.05.2019 03:00 14,4 C 13,5 C 13,2 C 73 % 1021,4 hPa 0,0 l/m 0,00 h 0,00 h 0 W/m 8,7 km/h (2 Bft) 97,44 %
30.05.2019 04:00 14,2 C 13,6 C 13,2 C 74 % 1021,3 hPa 0,0 l/m 0,00 h 0,03 h 0 W/m 8,2 km/h (2 Bft) 97,35 %
30.05.2019 05:00 14,2 C 12,9 C 12,4 C 77 % 1021,4 hPa 0,0 l/m 0,00 h 0,12 h 4 W/m 9,4 km/h (2 Bft) 97,86 %
30.05.2019 06:00 14,1 C 13,4 C 12,9 C 79 % 1021,5 hPa 0,0 l/m 0,00 h 0,00 h 13 W/m 10,8 km/h (2 Bft) 96,55 %
30.05.2019 07:00 14,4 C 14,2 C 13,7 C 78 % 1021,7 hPa 0,0 l/m 0,00 h 0,00 h 35 W/m 14,2 km/h (3 Bft) 96,93 %
30.05.2019 08:00 15,0 C 14,0 C 13,6 C 80 % 1022,1 hPa 0,0 l/m 0,00 h 0,43 h 57 W/m 16,2 km/h (3 Bft) 97,72 %
30.05.2019 09:00 14,6 C 14,2 C 13,7 C 87 % 1022,7 hPa 0,0 l/m 0,00 h 0,00 h 109 W/m 17,1 km/h (3 Bft) 98,28 %
30.05.2019 10:00 15,7 C 16,9 C 16,2 C 86 % 1022,7 hPa 0,0 l/m 0,10 h 0,00 h 277 W/m 19,2 km/h (3 Bft) 95,62 %
30.05.2019 11:00 16,8 C 16,7 C 16,3 C 82 % 1022,7 hPa 0,0 l/m 0,00 h 0,00 h 149 W/m 15,7 km/h (3 Bft) 98,59 %
30.05.2019 12:00 17,3 C 17,5 C 17,1 C 81 % 1023,0 hPa 0,0 l/m 0,00 h 0,00 h 208 W/m 18,2 km/h (3 Bft) 98,86 %
30.05.2019 13:00 17,7 C 17,8 C 17,4 C 81 % 1023,1 hPa 0,0 l/m 0,00 h 0,00 h 185 W/m 17,8 km/h (3 Bft) 95,23 %
30.05.2019 14:00 17,7 C 17,3 C 16,9 C 82 % 1023,3 hPa 0,0 l/m 0,00 h 0,00 h 100 W/m 14,4 km/h (3 Bft) 98,07 %
30.05.2019 15:00 17,9 C 18,3 C 17,6 C 83 % 1023,4 hPa 0,0 l/m 0,00 h 0,00 h 171 W/m 11,0 km/h (2 Bft) 98,36 %
30.05.2019 16:00 19,0 C 19,6 C 18,9 C 81 % 1023,4 hPa 0,0 l/m 0,17 h 0,00 h 238 W/m 15,3 km/h (3 Bft) 96,80 %
30.05.2019 17:00 20,3 C 20,9 C 20,1 C 77 % 1023,2 hPa 0,0 l/m 0,53 h 0,00 h 326 W/m 17,2 km/h (3 Bft) 97,41 %
30.05.2019 18:00 20,9 C 20,4 C 20,0 C 74 % 1023,2 hPa 0,0 l/m 0,57 h 0,00 h 296 W/m 20,2 km/h (4 Bft) 97,38 %
30.05.2019 19:00 20,6 C 19,6 C 19,1 C 74 % 1023,0 hPa 0,0 l/m 0,12 h 0,00 h 103 W/m 16,0 km/h (3 Bft) 98,75 %
30.05.2019 20:00 20,1 C 19,1 C 18,9 C 76 % 1023,1 hPa 0,0 l/m 0,00 h 0,00 h 32 W/m 10,2 km/h (2 Bft) 97,30 %
30.05.2019 21:00 19,7 C 18,4 C 17,9 C 77 % 1023,5 hPa 0,0 l/m 0,00 h 0,00 h 10 W/m 5,7 km/h (1 Bft) 97,47 %
30.05.2019 22:00 19,0 C 17,6 C 17,1 C 79 % 1024,0 hPa 0,0 l/m 0,00 h 0,00 h 0 W/m 4,0 km/h (1 Bft) 97,65 %
30.05.2019 23:00 18,3 C 17,2 C 17,0 C 79 % 1024,3 hPa 0,0 l/m 0,00 h 0,00 h 0 W/m 6,5 km/h (2 Bft) 96,31 %
31.05.2019 00:00 18,1 C 17,2 C 16,7 C 79 % 1024,5 hPa 0,0 l/m 0,00 h 0,00 h 0 W/m 9,5 km/h (2 Bft) 98,84 %
31.05.2019 01:00 17,8 C 16,9 C 16,5 C 80 % 1024,4 hPa 0,0 l/m 0,00 h 0,00 h 0 W/m 8,8 km/h (2 Bft) 98,00 %
31.05.2019 02:00 17,4 C 16,4 C 16,1 C 81 % 1024,1 hPa 0,0 l/m 0,00 h 0,00 h 0 W/m 8,7 km/h (2 Bft) 95,90 %
31.05.2019 03:00 17,0 C 16,1 C 15,6 C 81 % 1023,9 hPa 0,0 l/m 0,00 h 0,00 h 0 W/m 8,6 km/h (2 Bft) 98,73 %
31.05.2019 04:00 16,8 C 16,0 C 15,6 C 82 % 1023,9 hPa 0,0 l/m 0,00 h 0,00 h 0 W/m 10,2 km/h (2 Bft) 98,14 %
31.05.2019 05:00 16,5 C 15,6 C 15,3 C 82 % 1024,0 hPa 0,0 l/m 0,00 h 0,00 h 4 W/m 9,8 km/h (2 Bft) 97,01 %
31.05.2019 06:00 16,2 C 15,6 C 15,0 C 83 % 1024,4 hPa 0,0 l/m 0,00 h 0,00 h 24 W/m 13,7 km/h (3 Bft) 99,85 %
31.05.2019 07:00 16,3 C 16,3 C 15,8 C 81 % 1024,7 hPa 0,0 l/m 0,00 h 0,00 h 91 W/m 12,5 km/h (3 Bft) 98,16 %
31.05.2019 08:00 17,1 C 19,8 C 18,7 C 78 % 1025,0 hPa 0,0 l/m 0,03 h 0,00 h 115 W/m 14,3 km/h (3 Bft) 96,89 %
31.05.2019 09:00 19,5 C 25,0 C 24,9 C 71 % 1025,3 hPa 0,0 l/m 1,00 h 0,00 h 547 W/m 11,4 km/h (2 Bft) 96,41 %
31.05.2019 10:00 21,2 C 26,4 C 26,6 C 65 % 1025,1 hPa 0,0 l/m 1,00 h 0,00 h 716 W/m 13,9 km/h (3 Bft) 98,08 %
31.05.2019 11:00 22,1 C 27,2 C 27,8 C 64 % 1025,1 hPa 0,0 l/m 0,73 h 0,00 h 718 W/m 11,6 km/h (2 Bft) 97,71 %
31.05.2019 12:00 23,4 C 27,9 C 28,5 C 61 % 1025,0 hPa 0,0 l/m 0,80 h 0,00 h 862 W/m 12,2 km/h (2 Bft) 98,16 %
31.05.2019 13:00 23,5 C 25,6 C 26,3 C 60 % 1024,9 hPa 0,0 l/m 0,30 h 0,00 h 521 W/m 13,3 km/h (3 Bft) 98,01 %
31.05.2019 14:00 23,5 C 26,1 C 26,1 C 61 % 1024,8 hPa 0,0 l/m 0,67 h 0,00 h 762 W/m 16,3 km/h (3 Bft) 95,85 %
31.05.2019 15:00 23,6 C 24,9 C 23,5 C 60 % 1024,8 hPa 0,0 l/m 0,67 h 0,00 h 659 W/m 12,8 km/h (3 Bft) 98,47 %
31.05.2019 16:00 24,4 C 24,1 C 23,3 C 58 % 1024,7 hPa 0,0 l/m 1,00 h 0,00 h 745 W/m 13,1 km/h (3 Bft) 98,75 %
31.05.2019 17:00 24,5 C 23,7 C 23,1 C 58 % 1024,4 hPa 0,0 l/m 1,00 h 0,00 h 599 W/m 11,5 km/h (2 Bft) 95,21 %
31.05.2019 18:00 23,9 C 23,0 C 22,4 C 59 % 1024,2 hPa 0,0 l/m 0,97 h 0,00 h 415 W/m 10,0 km/h (2 Bft) 98,84 %
31.05.2019 19:00 22,8 C 21,5 C 20,1 C 62 % 1023,9 hPa 0,0 l/m 0,53 h 0,00 h 174 W/m 9,6 km/h (2 Bft) 98,64 %
31.05.2019 20:00 20,8 C 19,1 C 18,1 C 67 % 1023,8 hPa 0,0 l/m 0,00 h 0,00 h 31 W/m 4,8 km/h (1 Bft) 95,89 %
31.05.2019 21:00 19,3 C 16,7 C 15,5 C 71 % 1023,7 hPa 0,0 l/m 0,00 h 0,00 h 8 W/m 0,9 km/h (0 Bft) 98,09 %
31.05.2019 22:00 17,4 C 14,4 C 13,5 C 77 % 1023,9 hPa 0,0 l/m 0,00 h 0,00 h 0 W/m 0,0 km/h (0 Bft) 97,15 %
31.05.2019 23:00 15,7 C 13,2 C 12,6 C 82 % 1023,8 hPa 0,0 l/m 0,00 h 0,00 h 0 W/m 0,0 km/h (0 Bft) 97,87 %
01.06.2019 00:00 14,6 C 12,7 C 11,9 C 85 % 1023,7 hPa 0,0 l/m 0,00 h 0,00 h 0 W/m 0,4 km/h (0 Bft) 98,15 %
01.06.2019 01:00 13,7 C 11,7 C 11,3 C 86 % 1023,4 hPa 0,0 l/m 0,00 h 0,00 h 0 W/m 0,0 km/h (0 Bft) 97,18 %
01.06.2019 02:00 12,9 C 11,0 C 10,6 C 87 % 1023,2 hPa 0,0 l/m 0,00 h 0,00 h 0 W/m 0,2 km/h (0 Bft) 95,08 %
01.06.2019 03:00 12,9 C 12,7 C 12,0 C 91 % 1023,1 hPa 0,0 l/m 0,00 h 0,00 h 0 W/m 4,4 km/h (1 Bft) 99,29 %
01.06.2019 04:00 13,2 C 12,3 C 11,9 C 91 % 1023,0 hPa 0,0 l/m 0,00 h 0,00 h 0 W/m 3,0 km/h (1 Bft) 98,01 %
01.06.2019 05:00 12,8 C 11,7 C 10,9 C 90 % 1023,0 hPa 0,0 l/m 0,00 h 0,00 h 11 W/m 0,8 km/h (0 Bft) 95,11 %
01.06.2019 06:00 12,7 C 12,7 C 12,0 C 92 % 1023,1 hPa 0,0 l/m 0,00 h 0,00 h 33 W/m 3,3 km/h (1 Bft) 98,00 %
01.06.2019 07:00 13,6 C 14,3 C 13,4 C 93 % 1023,0 hPa 0,0 l/m 0,00 h 0,00 h 44 W/m 8,4 km/h (2 Bft) 97,51 %
01.06.2019 08:00 17,2 C 23,3 C 20,4 C 86 % 1023,1 hPa 0,0 l/m 0,07 h 0,00 h 105 W/m 10,0 km/h (2 Bft) 97,81 %
01.06.2019 09:00 21,4 C 26,8 C 27,0 C 72 % 1023,0 hPa 0,0 l/m 0,97 h 0,00 h 524 W/m 10,5 km/h (2 Bft) 98,51 %
01.06.2019 10:00 23,6 C 28,4 C 27,8 C 64 % 1023,0 hPa 0,0 l/m 0,93 h 0,00 h 590 W/m 9,2 km/h (2 Bft) 96,46 %
01.06.2019 11:00 24,2 C 29,5 C 29,0 C 63 % 1022,8 hPa 0,0 l/m 0,87 h 0,00 h 696 W/m 8,8 km/h (2 Bft) 97,15 %
01.06.2019 12:00 25,4 C 30,5 C 30,6 C 60 % 1022,5 hPa 0,0 l/m 0,73 h 0,00 h 721 W/m 8,9 km/h (2 Bft) 97,87 %
01.06.2019 13:00 27,3 C 33,0 C 34,4 C 57 % 1022,1 hPa 0,0 l/m 1,00 h 0,00 h 918 W/m 8,7 km/h (2 Bft) 98,29 %
01.06.2019 14:00 28,4 C 32,6 C 32,8 C 54 % 1021,6 hPa 0,0 l/m 1,00 h 0,00 h 871 W/m 9,6 km/h (2 Bft) 98,36 %
01.06.2019 15:00 28,4 C 30,6 C 27,5 C 53 % 1021,0 hPa 0,0 l/m 1,00 h 0,00 h 796 W/m 9,1 km/h (2 Bft) 96,65 %
01.06.2019 16:00 28,8 C 28,5 C 26,8 C 51 % 1020,4 hPa 0,0 l/m 1,00 h 0,00 h 722 W/m 10,0 km/h (2 Bft) 96,58 %
01.06.2019 17:00 29,2 C 28,1 C 26,5 C 51 % 1019,9 hPa 0,0 l/m 1,00 h 0,00 h 581 W/m 8,3 km/h (2 Bft) 98,66 %
01.06.2019 18:00 29,0 C 27,7 C 26,1 C 52 % 1019,4 hPa 0,0 l/m 1,00 h 0,00 h 401 W/m 6,2 km/h (2 Bft) 98,08 %
01.06.2019 19:00 28,2 C 26,5 C 23,4 C 53 % 1019,2 hPa 0,0 l/m 0,50 h 0,00 h 177 W/m 5,2 km/h (1 Bft) 97,22 %
01.06.2019 20:00 26,1 C 23,4 C 21,1 C 57 % 1018,9 hPa 0,0 l/m 0,00 h 0,00 h 26 W/m 1,1 km/h (0 Bft) 97,22 %
01.06.2019 21:00 23,6 C 20,6 C 18,9 C 66 % 1018,7 hPa 0,0 l/m 0,00 h 0,00 h 13 W/m 0,0 km/h (0 Bft) 97,94 %
01.06.2019 22:00 21,2 C 18,3 C 17,1 C 73 % 1018,6 hPa 0,0 l/m 0,00 h 0,00 h 0 W/m 0,0 km/h (0 Bft) 98,22 %
01.06.2019 23:00 19,5 C 17,0 C 16,1 C 78 % 1018,5 hPa 0,0 l/m 0,00 h 0,00 h 0 W/m 0,0 km/h (0 Bft) 97,27 %
02.06.2019 00:00 18,2 C 16,1 C 15,3 C 81 % 1018,2 hPa 0,0 l/m 0,00 h 0,00 h 0 W/m 0,0 km/h (0 Bft) 92,62 %
02.06.2019 01:00 17,2 C 15,4 C 14,6 C 83 % 1017,8 hPa 0,0 l/m 0,00 h 0,00 h 0 W/m 0,0 km/h (0 Bft) 98,79 %
02.06.2019 02:00 16,4 C 14,5 C 13,9 C 85 % 1017,4 hPa 0,0 l/m 0,00 h 0,00 h 0 W/m 0,3 km/h (0 Bft) 98,86 %
02.06.2019 03:00 16,5 C 16,7 C 15,6 C 88 % 1017,0 hPa 0,0 l/m 0,00 h 0,00 h 0 W/m 6,0 km/h (2 Bft) 95,30 %
02.06.2019 04:00 17,1 C 16,0 C 15,8 C 86 % 1016,7 hPa 0,0 l/m 0,00 h 0,00 h 0 W/m 8,8 km/h (2 Bft) 98,93 %
02.06.2019 05:00 16,6 C 15,6 C 15,1 C 88 % 1016,4 hPa 0,0 l/m 0,00 h 0,00 h 7 W/m 7,9 km/h (2 Bft) 97,06 %
02.06.2019 06:00 16,3 C 15,6 C 15,1 C 91 % 1016,3 hPa 0,0 l/m 0,00 h 0,00 h 18 W/m 7,2 km/h (2 Bft) 97,98 %
02.06.2019 07:00 17,1 C 17,5 C 16,7 C 91 % 1016,1 hPa 0,0 l/m 0,00 h 0,00 h 34 W/m 12,0 km/h (2 Bft) 97,51 %
02.06.2019 08:00 20,5 C 25,2 C 22,7 C 81 % 1015,8 hPa 0,0 l/m 0,03 h 0,00 h 80 W/m 14,6 km/h (3 Bft) 96,22 %
02.06.2019 09:00 24,3 C 28,8 C 30,1 C 69 % 1015,6 hPa 0,0 l/m 1,00 h 0,00 h 542 W/m 14,7 km/h (3 Bft) 98,42 %
02.06.2019 10:00 27,2 C 32,8 C 34,4 C 63 % 1015,3 hPa 0,0 l/m 1,00 h 0,00 h 727 W/m 14,0 km/h (3 Bft) 97,45 %
02.06.2019 11:00 29,8 C 35,0 C 36,5 C 52 % 1014,8 hPa 0,0 l/m 1,00 h 0,00 h 875 W/m 18,2 km/h (3 Bft) 96,87 %
02.06.2019 12:00 31,1 C 35,6 C 37,2 C 45 % 1014,3 hPa 0,0 l/m 1,00 h 0,00 h 930 W/m 18,5 km/h (3 Bft) 98,61 %
02.06.2019 13:00 32,1 C 36,1 C 38,8 C 42 % 1013,7 hPa 0,0 l/m 1,00 h 0,00 h 979 W/m 20,2 km/h (4 Bft) 96,80 %
02.06.2019 14:00 32,4 C 35,6 C 37,1 C 41 % 1012,9 hPa 0,0 l/m 1,00 h 0,00 h 896 W/m 16,3 km/h (3 Bft) 95,44 %
02.06.2019 15:00 32,8 C 34,4 C 32,3 C 41 % 1012,1 hPa 0,0 l/m 1,00 h 0,00 h 846 W/m 16,4 km/h (3 Bft) 99,86 %
02.06.2019 16:00 33,0 C 32,4 C 31,7 C 38 % 1011,5 hPa 0,0 l/m 0,87 h 0,00 h 705 W/m 22,4 km/h (4 Bft) 97,79 %
02.06.2019 17:00 32,9 C 31,6 C 31,2 C 39 % 1011,1 hPa 0,0 l/m 0,93 h 0,00 h 568 W/m 22,0 km/h (4 Bft) 97,00 %
02.06.2019 18:00 32,4 C 31,1 C 30,9 C 40 % 1010,8 hPa 0,0 l/m 1,00 h 0,00 h 437 W/m 19,0 km/h (3 Bft) 97,57 %
02.06.2019 19:00 31,7 C 30,1 C 29,3 C 42 % 1010,6 hPa 0,0 l/m 0,50 h 0,00 h 177 W/m 15,1 km/h (3 Bft) 96,87 %
02.06.2019 20:00 29,8 C 27,9 C 27,2 C 48 % 1010,7 hPa 0,0 l/m 0,00 h 0,00 h 27 W/m 8,2 km/h (2 Bft) 97,58 %
02.06.2019 21:00 27,9 C 25,9 C 24,0 C 50 % 1010,8 hPa 0,0 l/m 0,00 h 0,00 h 8 W/m 6,2 km/h (2 Bft) 97,36 %
02.06.2019 22:00 26,5 C 24,8 C 23,9 C 52 % 1011,1 hPa 0,0 l/m 0,00 h 0,00 h 0 W/m 8,2 km/h (2 Bft) 97,51 %
02.06.2019 23:00 25,3 C 23,6 C 22,5 C 55 % 1011,4 hPa 0,0 l/m 0,00 h 0,00 h 0 W/m 5,8 km/h (2 Bft) 97,65 %
Min-Datum _ 29.05.19 29.05.19 29.05.19 02.06.19 28.05.19 - - - - 27.05.19 02.06.19
_ Min-Zeit 06:10 05:24 04:52 16:48 05:36 - - - - 05:24 00:02
Minimum _ 5,4 C 3,9 C 3,9 C 37 % 1006,4 hPa - - - - 0,0 km/h (0 Bft) 15,38 %
Max-Datum _ 02.06.19 02.06.19 02.06.19 27.05.19 31.05.19 28.05.19 27.05.19 27.05.19 31.05.19 02.06.19 27.05.19
_ Max-Zeit 16:16 14:04 14:02 08:20 09:18 11:46 12:08 05:10 12:42 18:30 00:04
Maximum _ 33,2 C 37,8 C 41,1 C 98 % 1025,5 hPa 4,0 l/m 0,07 h 0,08 h 1182 W/m 38,6 km/h
SO (5 Bft)
100,00 %
Durchschnitt _ 18,2 C 18,5 C 17,9 C 73 % 1017,5 hPa #7,8 l/m #47:37 h #5:24 h 336 W/m 8,3 km/h (2 Bft) 97,48 %
© 2019 W. Hausmann